Flight Track Log - Related Links

Times and Time Zones

All times are in EDT time to prevent confusion due to time zone crossing. See the JBU732 flight status page for this flight to view local times or setup timezone preferences in your user account.

Time Position Orientation Groundspeed Altitude Reporting Facility
EDT Latitude Longitude Course Direction KTS MPH feet Rate Location/Type
Sat 11:19:26 AM 18.5420 -67.1130 308° West 198 228 3,100  Level FlightAware ADS-B
Sat 11:19:54 AM 18.5530 -67.1360 297° West 199 229 4,100 1,745 Climbing FlightAware ADS-B
Sat 11:20:21 AM 18.5600 -67.1650 284° West 227 261 4,700 1,256 Climbing FlightAware ADS-B
Sat 11:20:37 AM 18.5630 -67.1820 281° West 249 287 5,000 1,317 Climbing FlightAware ADS-B
Sat 11:21:02 AM 18.5730 -67.2110 290° West 280 322 5,600 1,950 Climbing FlightAware ADS-B
Sat 11:21:17 AM 18.5860 -67.2300 306° West 287 330 6,300 3,000 Climbing FlightAware ADS-B
Sat 11:21:46 AM 18.6100 -67.2590 311° West 289 333 7,800 2,947 Climbing FlightAware ADS-B
Sat 11:22:14 AM 18.6360 -67.2910 311° West 300 345 9,100 2,522 Climbing FlightAware ADS-B
Sat 11:22:55 AM 18.6730 -67.3400 309° West 322 371 10,700 1,704 Climbing FlightAware ADS-B
Sat 11:23:35 AM 18.7120 -67.3930 308° West 362 417 11,400 1,630 Climbing FlightAware ADS-B
Sat 11:24:16 AM 18.7550 -67.4490 309° West 375 432 12,900 2,207 Climbing FlightAware ADS-B
Sat 11:25:02 AM 18.8050 -67.5170 308° West 383 441 14,600 2,114 Climbing FlightAware ADS-B
Sat 11:25:44 AM 18.8520 -67.5790 309° West 394 453 16,000 1,975 Climbing FlightAware ADS-B
Sat 11:26:21 AM 18.8950 -67.6360 309° West 400 460 17,200 1,880 Climbing FlightAware ADS-B
Sat 11:27:07 AM 18.9490 -67.7080 308° West 408 470 18,600 1,724 Climbing FlightAware ADS-B
Sat 11:27:48 AM 18.9970 -67.7720 308° West 417 480 19,700 1,765 Climbing FlightAware ADS-B
Sat 11:28:32 AM 19.0500 -67.8440 308° West 420 483 21,100 1,643 Climbing FlightAware ADS-B
Sat 11:29:12 AM 19.0990 -67.9090 309° West 425 489 22,000 1,350 Climbing FlightAware ADS-B
Sat 11:29:52 AM 19.1480 -67.9750 308° West 431 496 22,900 1,412 Climbing FlightAware ADS-B
Sat 11:30:37 AM 19.2030 -68.0480 309° West 433 498 24,000 1,395 Climbing FlightAware ADS-B
Sat 11:31:18 AM 19.2550 -68.1180 308° West 437 503 24,900 1,256 Climbing FlightAware ADS-B
Sat 11:32:03 AM 19.3110 -68.1930 308° West 441 507 25,800 988 Climbing FlightAware ADS-B
Sat 11:32:43 AM 19.3610 -68.2620 308° West 449 517 26,300 889 Climbing FlightAware ADS-B
Sat 11:33:24 AM 19.4150 -68.3340 308° West 454 522 27,000 1,446 Climbing FlightAware ADS-B
Sat 11:34:06 AM 19.4690 -68.4070 308° West 443 510 28,300 1,286 Climbing FlightAware ADS-B
Sat 11:34:48 AM 19.5230 -68.4800 308° West 453 521 28,800 692 Climbing FlightAware ADS-B
Sat 11:35:24 AM 19.5690 -68.5430 308° West 458 527 29,200 918 Climbing FlightAware ADS-B
Sat 11:36:13 AM 19.6330 -68.6290 308° West 458 527 30,100 1,121 Climbing FlightAware ADS-B
Sat 11:36:55 AM 19.6880 -68.7030 308° West 456 525 30,900 1,214 Climbing FlightAware ADS-B
Sat 11:37:37 AM 19.7420 -68.7770 308° West 451 519 31,800 1,214 Climbing FlightAware ADS-B
Sat 11:38:19 AM 19.7960 -68.8500 308° West 449 517 32,600 1,235 Climbing FlightAware ADS-B
Sat 11:38:45 AM 19.8290 -68.8950 308° West 445 512 33,200 1,183 Climbing FlightAware ADS-B
Sat 11:39:30 AM 19.8850 -68.9720 308° West 433 498 34,000 565 Climbing FlightAware ADS-B
Sat 11:40:10 AM 19.9340 -69.0370 309° West 430 495 34,000  Level FlightAware ADS-B
Sat 11:40:46 AM 19.9700 -69.0930 304° West 433 498 34,000  Level FlightAware ADS-B
Sat 11:41:48 AM 20.0390 -69.2090 302° West 439 505 34,000  Level FlightAware ADS-B
Sat 11:42:24 AM 20.0720 -69.2650 302° West 439 505 34,000  Level FlightAware ADS-B
Sat 11:43:13 AM 20.1160 -69.3410 302° West 439 505 34,000  Level FlightAware ADS-B
Sat 11:43:53 AM 20.1810 -69.4420 304° West 442 509 34,000  Level FlightAware ADS-B
Sat 11:44:35 AM 20.2200 -69.5070 303° West 442 509 34,000  Level FlightAware ADS-B
Sat 11:45:14 AM 20.2550 -69.5680 301° West 442 509 34,000  Level FlightAware ADS-B
Sat 11:46:17 AM 20.3130 -69.6670 302° West 442 509 34,000  Level FlightAware ADS-B
Sat 11:46:53 AM 20.3470 -69.7240 302° West 442 509 34,000  Level FlightAware ADS-B
Sat 11:47:39 AM 20.3890 -69.7960 302° West 442 509 34,000  Level FlightAware ADS-B
Sat 11:48:16 AM 20.4230 -69.8550 302° West 442 509 34,000  Level FlightAware ADS-B
Sat 11:49:05 AM 20.4680 -69.9320 302° West 442 509 34,000  Level FlightAware ADS-B
Sat 11:49:41 AM 20.5010 -69.9880 302° West 442 509 34,000  Level FlightAware ADS-B
Sat 11:50:43 AM 20.5580 -70.0860 302° West 442 509 34,000  Level FlightAware ADS-B
Sat 11:51:19 AM 20.5920 -70.1430 303° West 442 509 34,000  Level FlightAware ADS-B
Sat 11:52:07 AM 20.6360 -70.2180 302° West 442 509 34,000  Level FlightAware ADS-B
Sat 11:52:43 AM 20.6690 -70.2750 302° West 442 509 34,000  Level FlightAware ADS-B
Sat 11:53:32 AM 20.7140 -70.3520 302° West 442 509 34,000  Level FlightAware ADS-B
Sat 11:53:58 AM 20.8422 -70.5447 302° West 441 507 34,000  Level Miami Center
Sat 11:54:58 AM 20.9094 -70.6547 303° West 441 507 34,000  Level Miami Center
Sat 11:55:58 AM 20.9697 -70.7608 301° West 441 507 34,000  Level Miami Center
Sat 11:56:58 AM 21.0347 -70.8711 302° West 441 507 34,000  Level Miami Center
Sat 11:57:58 AM 21.0972 -70.9794 302° West 441 507 34,000  Level Miami Center
Sat 11:58:58 AM 21.1597 -71.0878 302° West 441 507 34,000  Level Miami Center
Sat 11:59:58 AM 21.2222 -71.1964 302° West 435 501 34,000  Level Miami Center
Sat 12:00:58 PM 21.2819 -71.2961 303° West 435 501 34,000  Level Miami Center
Sat 12:01:58 PM 21.3464 -71.4050 302° West 440 506 34,000  Level Miami Center
Sat 12:02:58 PM 21.4108 -71.5158 302° West 440 506 34,000  Level Miami Center
Sat 12:03:58 PM 21.4750 -71.6225 303° West 440 506 34,000  Level Miami Center
Sat 12:04:58 PM 21.5392 -71.7314 302° West 440 506 34,000  Level Miami Center
Sat 12:05:58 PM 21.6033 -71.8406 302° West 440 506 34,000  Level Miami Center
Sat 12:06:58 PM 21.6653 -71.9500 301° West 440 506 34,000  Level Miami Center
Sat 12:07:58 PM 21.7292 -72.0569 303° West 435 501 34,000  Level Miami Center
Sat 12:08:58 PM 21.7911 -72.1664 301° West 435 501 34,000  Level Miami Center
Sat 12:09:58 PM 21.8569 -72.2736 304° West 435 501 34,000  Level Miami Center
Sat 12:10:58 PM 21.9186 -72.3833 301° West 435 501 34,000  Level Miami Center
Sat 12:11:58 PM 21.9800 -72.4886 302° West 435 501 34,000  Level Miami Center
Sat 12:12:58 PM 22.0394 -72.5986 300° West 429 494 34,000  Level Miami Center
Sat 12:13:58 PM 22.1008 -72.7042 302° West 424 488 34,000  Level Miami Center
Sat 12:14:58 PM 22.1664 -72.8119 303° West 424 488 34,000  Level Miami Center
Sat 12:15:58 PM 22.2256 -72.9200 301° West 424 488 34,000  Level Miami Center
Sat 12:16:58 PM 22.2869 -73.0303 301° West 424 488 34,000  Level Miami Center
Sat 12:17:58 PM 22.3503 -73.1406 302° West 424 488 34,000  Level Miami Center
Sat 12:18:58 PM 22.4133 -73.2467 303° West 424 488 34,000  Level Miami Center
Sat 12:19:58 PM 22.4744 -73.3550 301° West 424 488 34,000  Level Miami Center
Sat 12:20:58 PM 22.5333 -73.4728 298° West 419 482 34,000  Level Miami Center
Sat 12:21:58 PM 22.5964 -73.5789 303° West 414 476 34,000  Level Miami Center
Sat 12:22:58 PM 22.6550 -73.6856 301° West 414 476 34,000  Level Miami Center
Sat 12:23:58 PM 22.7200 -73.7942 303° West 419 482 34,000  Level Miami Center
Sat 12:24:58 PM 22.7764 -73.9033 299° West 419 482 34,000  Level Miami Center
Sat 12:25:58 PM 22.8369 -74.0100 302° West 419 482 34,000  Level Miami Center
Sat 12:26:58 PM 22.9017 -74.1192 303° West 419 482 34,000  Level Miami Center
Sat 12:27:58 PM 22.9622 -74.2306 301° West 419 482 34,000  Level Miami Center
Sat 12:28:58 PM 23.0203 -74.3400 300° West 424 488 34,000  Level Miami Center
Sat 12:29:58 PM 23.0828 -74.4447 303° West 424 488 34,000  Level Miami Center
Sat 12:30:58 PM 23.1431 -74.5567 300° West 424 488 34,000  Level Miami Center
Sat 12:31:58 PM 23.2072 -74.6664 302° West 424 488 34,000  Level Miami Center
Sat 12:32:58 PM 23.2653 -74.7783 299° West 424 488 34,000  Level Miami Center
Sat 12:33:58 PM 23.3294 -74.8881 303° West 424 488 34,000  Level Miami Center
Sat 12:34:58 PM 23.3894 -75.0028 300° West 424 488 34,000  Level Miami Center
Sat 12:35:58 PM 23.4514 -75.1128 302° West 424 488 34,000  Level Miami Center
Sat 12:36:58 PM 23.5153 -75.2228 302° West 424 488 34,000  Level Miami Center
Sat 12:37:58 PM 23.5750 -75.3378 300° West 424 488 34,000  Level Miami Center
Sat 12:38:58 PM 23.6367 -75.4503 301° West 429 494 34,000  Level Miami Center
Sat 12:39:58 PM 23.7003 -75.5608 302° West 429 494 34,000  Level Miami Center
Sat 12:40:58 PM 23.7619 -75.6761 300° West 434 499 34,000  Level Miami Center
Sat 12:41:58 PM 23.8214 -75.7892 300° West 434 499 34,000  Level Miami Center
Sat 12:42:58 PM 23.8828 -75.9044 300° West 434 499 34,000  Level Miami Center
Sat 12:43:58 PM 23.9419 -76.0153 300° West 439 505 34,000  Level Miami Center
Sat 12:44:58 PM 24.0011 -76.1286 300° West 439 505 34,000  Level Miami Center
Sat 12:45:58 PM 24.0622 -76.2397 301° West 439 505 34,000  Level Miami Center
Sat 12:46:58 PM 24.1211 -76.3511 300° West 439 505 34,000  Level Miami Center
Sat 12:47:58 PM 24.1800 -76.4647 300° West 434 499 34,000  Level Miami Center
Sat 12:48:58 PM 24.2408 -76.5786 300° West 434 499 34,000  Level Miami Center
Sat 12:49:58 PM 24.2994 -76.6878 301° West 429 494 34,000  Level Miami Center
Sat 12:50:58 PM 24.3603 -76.8019 300° West 429 494 34,000  Level Miami Center
Sat 12:51:58 PM 24.4167 -76.9136 299° West 429 494 34,000  Level Miami Center
Sat 12:52:58 PM 24.4772 -77.0278 300° West 429 494 34,000  Level Miami Center
Sat 12:53:58 PM 24.5356 -77.1397 300° West 429 494 34,000  Level Miami Center
Sat 12:54:58 PM 24.5958 -77.2564 300° West 429 494 34,000  Level Miami Center
Sat 12:55:58 PM 24.6519 -77.3664 299° West 429 494 34,000  Level Miami Center
Sat 12:56:58 PM 24.7122 -77.4833 300° West 429 494 34,000  Level Miami Center
Sat 12:57:58 PM 24.7703 -77.5958 300° West 429 494 34,000  Level Miami Center
Sat 12:58:58 PM 24.8303 -77.7083 300° West 429 494 34,000  Level Miami Center
Sat 12:59:58 PM 24.8900 -77.8233 300° West 429 494 34,000  Level Miami Center
Sat 01:00:58 PM 24.9500 -77.9361 300° West 429 494 34,000  Level Miami Center
Sat 01:01:58 PM 24.9994 -78.0375 298° West 429 494 34,000  Level Miami Center
Sat 01:07:48 PM 25.3470 -78.7090 298° West 428 493 34,000  Level FlightAware ADS-B
Sat 01:08:42 PM 25.4010 -78.8160 299° West 429 494 34,000  Level FlightAware ADS-B
Sat 01:09:25 PM 25.4430 -78.8980 300° West 431 496 34,000  Level FlightAware ADS-B
Sat 01:09:53 PM 25.4700 -78.9530 299° West 431 496 34,000  Level FlightAware ADS-B
Sat 01:10:29 PM 25.5120 -79.0170 306° West 434 499 34,000 -250 Level FlightAware ADS-B
Sat 01:11:29 PM 25.5990 -79.1020 319° Northwest 431 496 33,600 -611 Descending FlightAware ADS-B
Sat 01:12:17 PM 25.6760 -79.1720 321° Northwest 435 501 32,900 -818 Descending FlightAware ADS-B
Sat 01:12:57 PM 25.7390 -79.2290 321° Northwest 439 505 32,400 -742 Descending FlightAware ADS-B
Sat 01:13:54 PM 25.8270 -79.3090 321° Northwest 436 502 31,700 -772 Descending FlightAware ADS-B
Sat 01:14:38 PM 25.8970 -79.3740 320° Northwest 444 511 31,100 -815 Descending FlightAware ADS-B
Sat 01:15:15 PM 25.9500 -79.4350 314° West 442 509 30,600 -732 Descending FlightAware ADS-B
Sat 01:16:00 PM 26.0140 -79.5000 318° Northwest 428 493 30,100 -424 Descending FlightAware ADS-B
Sat 01:16:40 PM 26.0790 -79.5560 322° Northwest 432 497 30,000 -71 Descending FlightAware ADS-B
Sat 01:17:25 PM 26.1530 -79.6140 325° Northwest 439 505 30,000  Level FlightAware ADS-B
Sat 01:18:08 PM 26.2300 -79.6620 331° Northwest 437 503 30,000  Level FlightAware ADS-B
Sat 01:18:45 PM 26.2940 -79.7010 331° Northwest 437 503 30,000 -439 Level FlightAware ADS-B
Sat 01:19:30 PM 26.3740 -79.7500 331° Northwest 431 496 29,400 -1,467 Descending FlightAware ADS-B
Sat 01:20:15 PM 26.4510 -79.8020 329° Northwest 419 482 27,800 -2,093 Descending FlightAware ADS-B
Sat 01:20:56 PM 26.5150 -79.8530 325° Northwest 411 473 26,400 -2,047 Descending FlightAware ADS-B
Sat 01:21:40 PM 26.5810 -79.9080 323° Northwest 402 463 24,900 -1,941 Descending FlightAware ADS-B
Sat 01:22:04 PM 26.6130 -79.9440 315° West 395 455 24,200 -794 Descending FlightAware ADS-B
Sat 01:22:48 PM 26.6510 -80.0200 299° West 396 456 24,000 -143 Descending FlightAware ADS-B
Sat 01:23:28 PM 26.6950 -80.0860 307° West 395 455 24,000  Level FlightAware ADS-B
Sat 01:24:08 PM 26.7410 -80.1360 316° Northwest 395 455 24,000  Level FlightAware ADS-B
Sat 01:24:49 PM 26.7900 -80.1820 320° Northwest 395 455 24,000  Level FlightAware ADS-B
Sat 01:25:44 PM 26.8560 -80.2430 320° Northwest 395 455 24,000  Level FlightAware ADS-B
Sat 01:26:32 PM 26.9130 -80.2970 320° Northwest 395 455 24,000  Level FlightAware ADS-B
Sat 01:27:12 PM 26.9600 -80.3420 320° Northwest 395 455 24,000  Level FlightAware ADS-B
Sat 01:27:49 PM 27.0040 -80.3830 320° Northwest 395 455 24,000 -1,242 Level FlightAware ADS-B
Sat 01:30:30 PM 27.3160 -80.5990 328° Northwest 19,500 -1,452 Descending FlightAware ADS-B
Sat 01:31:28 PM 27.3860 -80.6570 324° Northwest 362 417 18,700 -511 Descending FlightAware ADS-B
Sat 01:32:04 PM 27.4270 -80.6920 323° Northwest 362 417 18,700  Level FlightAware ADS-B
Sat 01:32:53 PM 27.4830 -80.7390 323° Northwest 362 417 18,700  Level FlightAware ADS-B
Sat 01:33:29 PM 27.5240 -80.7740 323° Northwest 362 417 18,700 -1,467 Level FlightAware ADS-B
Sat 01:38:12 PM 28.0040 -81.1350 326° Northwest 386 444 10,900 -1,468 Descending FlightAware ADS-B
Sat 01:38:56 PM 28.0810 -81.1600 344° North 382 440 10,700 -309 Descending FlightAware ADS-B
Sat 01:39:49 PM 28.1570 -81.1860 343° North 358 412 10,400 -173 Descending FlightAware ADS-B
Sat 01:40:40 PM 28.2260 -81.2100 343° North 358 412 10,400 -497 Level FlightAware ADS-B
Sat 01:44:39 PM 28.4600 -81.1870 North 235 270 8,000 -607 Descending FlightAware ADS-B
Sat 01:45:07 PM 28.4880 -81.1870 360° North 223 257 7,700 -304 Descending FlightAware ADS-B
Sat 01:45:58 PM 28.5240 -81.1880 359° North 218 251 7,600 -671 Descending FlightAware ADS-B
Sat 01:47:39 PM 28.5960 -81.2000 352° North 215 247 6,000 -1,508 Descending FlightAware ADS-B
Sat 01:48:38 PM 28.6390 -81.2540 312° West 3,800 -2,133 Descending FlightAware ADS-B
Sat 01:49:09 PM 28.6310 -81.3060 260° West 209 241 2,800 -1,565 Descending FlightAware ADS-B
Sat 01:49:24 PM 28.6200 -81.3160 219° Southwest 205 236 2,600 -585 Descending FlightAware ADS-B
Sat 01:49:50 PM 28.5950 -81.3280 203° Southwest 205 236 2,400 -240 Descending FlightAware ADS-B
Sat 01:50:14 PM 28.5700 -81.3280 180° South 202 232 2,400 -102 Level FlightAware ADS-B
Sat 01:50:49 PM 28.5530 -81.3280 180° South 192 221 2,300 -407 Descending FlightAware ADS-B
Sat 01:51:13 PM 28.5410 -81.3280 180° South 190 219 2,000 -873 Descending FlightAware ADS-B
Sat 01:51:44 PM 28.5190 -81.3280 180° South 177 204 1,500 -508 Descending FlightAware ADS-B
Sat 01:52:12 PM 28.4990 -81.3270 177° South 177 204 1,500  Level FlightAware ADS-B

Login

Don't have an account? Register now (free) for customized features, flight alerts, and more!